createdAt,value
2017-12-16T00:01:20.034Z,27.60
2017-12-16T00:03:47.680Z,21.47
2017-12-16T00:06:15.250Z,25.37
2017-12-16T00:08:42.861Z,26.80
2017-12-16T00:11:10.475Z,18.77
2017-12-16T00:13:38.038Z,24.93
2017-12-16T00:16:05.638Z,28.47
2017-12-16T00:18:33.208Z,20.20
2017-12-16T00:21:00.812Z,18.50
2017-12-16T00:23:28.529Z,20.77
2017-12-16T00:25:56.157Z,17.37
2017-12-16T00:28:24.704Z,18.93
2017-12-16T00:30:52.273Z,25.57
2017-12-16T00:33:19.857Z,20.00
2017-12-16T00:35:47.421Z,20.60
2017-12-16T00:38:15.790Z,23.13
2017-12-16T00:40:43.369Z,21.00
2017-12-16T00:43:14.414Z,23.43
2017-12-16T00:45:42.021Z,23.03
2017-12-16T00:48:09.585Z,26.10
2017-12-16T00:50:37.198Z,19.70
2017-12-16T00:53:04.764Z,21.63
2017-12-16T00:55:32.434Z,20.00
2017-12-16T00:58:00.010Z,18.80
2017-12-16T01:00:27.758Z,24.60
2017-12-16T01:02:55.322Z,23.03
2017-12-16T01:05:22.941Z,21.77
2017-12-16T01:07:50.524Z,22.10
2017-12-16T01:10:18.088Z,17.30
2017-12-16T01:12:45.691Z,19.67
2017-12-16T01:15:13.260Z,15.73
2017-12-16T01:17:40.869Z,22.40
2017-12-16T01:20:08.430Z,23.03
2017-12-16T01:22:35.981Z,22.50
2017-12-16T01:25:03.579Z,20.50
2017-12-16T01:27:31.141Z,21.93
2017-12-16T01:29:58.744Z,23.40
2017-12-16T01:32:26.316Z,18.63
2017-12-16T01:35:05.595Z,18.77
2017-12-16T01:37:44.813Z,27.47
2017-12-16T01:40:12.466Z,27.13
2017-12-16T01:42:40.126Z,25.90
2017-12-16T01:45:07.687Z,27.43
2017-12-16T01:47:35.287Z,25.43
2017-12-16T01:50:03.052Z,21.37
2017-12-16T01:52:30.650Z,16.60
2017-12-16T01:54:58.205Z,22.90
2017-12-16T01:57:26.748Z,26.60
2017-12-16T01:59:54.367Z,24.00
2017-12-16T02:02:21.966Z,24.80
2017-12-16T02:04:49.667Z,26.77
2017-12-16T02:07:18.011Z,23.37
2017-12-16T02:09:45.614Z,25.80
2017-12-16T02:12:13.936Z,41.83
2017-12-16T02:14:41.698Z,33.70
2017-12-16T02:17:09.288Z,23.20
2017-12-16T02:19:36.893Z,28.30
2017-12-16T02:22:04.448Z,28.67
2017-12-16T02:24:32.046Z,23.10
2017-12-16T02:26:59.625Z,25.73
2017-12-16T02:29:27.181Z,32.93
2017-12-16T02:31:55.570Z,36.27
2017-12-16T02:34:24.050Z,25.30
2017-12-16T02:36:52.419Z,25.90
2017-12-16T02:39:20.221Z,24.23
2017-12-16T02:41:47.836Z,33.73
2017-12-16T02:44:15.400Z,26.03
2017-12-16T02:46:42.965Z,33.03
2017-12-16T02:49:10.570Z,22.90
2017-12-16T02:51:38.121Z,19.57
2017-12-16T02:54:05.713Z,33.17
2017-12-16T02:56:33.278Z,22.57
2017-12-16T02:59:01.745Z,21.50
2017-12-16T03:01:29.301Z,20.90
2017-12-16T03:03:56.876Z,26.43
2017-12-16T03:06:24.470Z,21.30
2017-12-16T03:08:52.084Z,21.80
2017-12-16T03:11:19.662Z,10.50
2017-12-16T03:13:47.221Z,20.50
2017-12-16T03:16:15.285Z,25.97
2017-12-16T03:18:42.841Z,17.87
2017-12-16T03:21:10.386Z,22.43
2017-12-16T03:23:38.900Z,21.60
2017-12-16T03:26:06.595Z,25.60
2017-12-16T03:28:34.945Z,26.70
2017-12-16T03:31:02.673Z,22.77
2017-12-16T03:33:30.394Z,22.90
2017-12-16T03:35:58.948Z,27.47
2017-12-16T03:38:26.553Z,27.47
2017-12-16T03:40:54.264Z,23.30
2017-12-16T03:43:21.885Z,24.83
2017-12-16T03:45:49.445Z,24.47
2017-12-16T03:48:17.005Z,28.63
2017-12-16T03:50:44.693Z,23.53
2017-12-16T03:53:12.266Z,27.80
2017-12-16T03:55:39.896Z,25.93
2017-12-16T03:58:07.453Z,32.80
2017-12-16T04:00:35.010Z,32.73
2017-12-16T04:03:02.609Z,36.20
2017-12-16T04:05:30.409Z,36.03
2017-12-16T04:07:58.784Z,40.77
2017-12-16T04:10:26.365Z,34.00
2017-12-16T04:12:53.979Z,32.90
2017-12-16T04:15:21.557Z,30.30
2017-12-16T04:17:49.217Z,33.97
2017-12-16T04:20:16.804Z,41.67
2017-12-16T04:22:44.411Z,32.53
2017-12-16T04:25:12.005Z,41.57
2017-12-16T04:27:39.561Z,35.33
2017-12-16T04:30:07.935Z,38.07
2017-12-16T04:32:35.499Z,44.07
2017-12-16T04:35:03.069Z,44.50
2017-12-16T04:37:30.676Z,39.60
2017-12-16T04:39:58.246Z,38.27
2017-12-16T04:42:25.886Z,30.80
2017-12-16T04:44:54.261Z,31.83
2017-12-16T04:47:21.854Z,30.67
2017-12-16T04:49:49.536Z,35.43
2017-12-16T04:52:17.930Z,36.10
2017-12-16T04:54:45.501Z,33.93
2017-12-16T04:57:13.083Z,34.70
2017-12-16T04:59:40.692Z,46.23
2017-12-16T05:02:08.232Z,42.10
2017-12-16T05:04:36.086Z,37.63
2017-12-16T05:07:03.645Z,33.33
2017-12-16T05:09:31.253Z,39.93
2017-12-16T05:11:58.829Z,33.03
2017-12-16T05:14:26.934Z,35.73
2017-12-16T05:16:54.491Z,46.87
2017-12-16T05:19:22.056Z,32.60
2017-12-16T05:21:49.676Z,31.40
2017-12-16T05:24:17.249Z,45.93
2017-12-16T05:26:44.849Z,33.87
2017-12-16T05:29:12.878Z,36.27
2017-12-16T05:31:41.172Z,36.20
2017-12-16T05:34:08.921Z,34.63
2017-12-16T05:36:36.488Z,34.80
2017-12-16T05:39:04.101Z,33.60
2017-12-16T05:41:31.960Z,39.03
2017-12-16T05:43:59.557Z,36.80
2017-12-16T05:46:27.125Z,35.27
2017-12-16T05:48:54.692Z,40.77
2017-12-16T05:51:22.285Z,36.80
2017-12-16T05:53:49.970Z,41.20
2017-12-16T05:56:18.353Z,38.00
2017-12-16T05:58:45.945Z,34.90
2017-12-16T06:01:13.562Z,37.27
2017-12-16T06:03:41.196Z,41.63
2017-12-16T06:06:08.753Z,40.07
2017-12-16T06:08:36.382Z,45.90
2017-12-16T06:11:03.967Z,45.57
2017-12-16T06:13:31.572Z,40.53
2017-12-16T06:15:59.892Z,33.40
2017-12-16T06:18:27.493Z,33.87
2017-12-16T06:20:55.033Z,38.80
2017-12-16T06:23:22.633Z,41.47
2017-12-16T06:25:50.192Z,34.90
2017-12-16T06:28:18.516Z,37.50
2017-12-16T06:30:46.150Z,35.90
2017-12-16T06:33:13.718Z,45.77
2017-12-16T06:35:41.310Z,50.63
2017-12-16T06:38:08.870Z,46.40
2017-12-16T06:40:36.501Z,46.93
2017-12-16T06:43:04.070Z,45.87
2017-12-16T06:45:31.668Z,47.57
2017-12-16T06:47:59.280Z,50.47
2017-12-16T06:50:26.837Z,62.10
2017-12-16T06:52:54.620Z,49.70
2017-12-16T06:55:22.205Z,45.20
2017-12-16T06:57:49.796Z,38.70
2017-12-16T07:00:18.973Z,42.10
2017-12-16T07:02:46.590Z,47.50
2017-12-16T07:05:14.141Z,46.10
2017-12-16T07:07:42.226Z,34.60
2017-12-16T07:10:09.954Z,35.40
2017-12-16T07:12:38.286Z,45.13
2017-12-16T07:15:05.897Z,44.03
2017-12-16T07:17:33.470Z,38.53
2017-12-16T07:20:01.057Z,50.47
2017-12-16T07:22:28.638Z,41.83
2017-12-16T07:24:57.000Z,46.03
2017-12-16T07:27:24.577Z,40.07
2017-12-16T07:29:52.159Z,34.67
2017-12-16T07:32:19.759Z,39.00
2017-12-16T07:34:47.313Z,37.00
2017-12-16T07:37:14.969Z,29.23
2017-12-16T07:39:42.566Z,40.80
2017-12-16T07:42:10.193Z,36.40
2017-12-16T07:44:37.750Z,38.20
2017-12-16T07:47:05.320Z,45.10
2017-12-16T07:49:32.938Z,44.10
2017-12-16T07:52:01.291Z,44.37
2017-12-16T07:54:28.929Z,46.40
2017-12-16T07:56:56.505Z,41.23
2017-12-16T07:59:24.134Z,43.87
2017-12-16T08:01:51.706Z,40.53
2017-12-16T08:04:19.419Z,50.23
2017-12-16T08:06:47.011Z,45.93
2017-12-16T08:09:14.633Z,48.70
2017-12-16T08:11:43.035Z,48.20
2017-12-16T08:14:10.615Z,47.80
2017-12-16T08:16:38.215Z,59.97
2017-12-16T08:19:05.828Z,51.73
2017-12-16T08:21:33.420Z,45.27
2017-12-16T08:24:01.029Z,54.73
2017-12-16T08:26:29.364Z,45.00
2017-12-16T08:28:56.959Z,52.90
2017-12-16T08:31:25.303Z,50.83
2017-12-16T08:33:52.927Z,60.93
2017-12-16T08:36:20.494Z,70.57
2017-12-16T08:38:48.094Z,69.63
2017-12-16T08:41:15.662Z,63.50
2017-12-16T08:43:43.229Z,56.47
2017-12-16T08:46:10.907Z,39.43
2017-12-16T08:48:38.468Z,47.67
2017-12-16T08:51:06.105Z,47.80
2017-12-16T08:53:34.445Z,52.63
2017-12-16T08:56:02.069Z,47.33
2017-12-16T08:58:29.814Z,45.00
2017-12-16T09:00:57.408Z,35.03
2017-12-16T09:03:25.010Z,43.80
2017-12-16T09:05:52.620Z,43.63
2017-12-16T09:08:20.230Z,41.27
2017-12-16T09:10:48.026Z,43.80
2017-12-16T09:13:16.531Z,44.37
2017-12-16T09:15:44.090Z,50.37
2017-12-16T09:18:11.658Z,42.43
2017-12-16T09:20:39.281Z,51.60
2017-12-16T09:23:06.843Z,46.00
2017-12-16T09:25:35.241Z,45.63
2017-12-16T09:28:02.801Z,40.97
2017-12-16T09:30:30.412Z,40.57
2017-12-16T09:32:57.987Z,53.23
2017-12-16T09:35:25.637Z,42.50
2017-12-16T09:37:53.229Z,49.50
2017-12-16T09:40:21.569Z,43.33
2017-12-16T09:42:49.177Z,38.40
2017-12-16T09:45:17.514Z,41.90
2017-12-16T09:47:45.169Z,41.00
2017-12-16T09:50:12.981Z,13.23
2017-12-16T09:52:40.641Z,48.10
2017-12-16T09:55:08.234Z,49.93
2017-12-16T09:57:35.812Z,52.80
2017-12-16T10:00:03.425Z,50.37
2017-12-16T10:02:31.056Z,55.90
2017-12-16T10:04:59.608Z,65.30
2017-12-16T10:07:27.361Z,44.90
2017-12-16T10:09:55.125Z,49.73
2017-12-16T10:12:22.706Z,51.53
2017-12-16T10:14:50.340Z,43.03
2017-12-16T10:17:17.913Z,42.87
2017-12-16T10:19:45.567Z,41.10
2017-12-16T10:22:13.172Z,40.53
2017-12-16T10:24:41.594Z,35.27
2017-12-16T10:27:09.309Z,36.40
2017-12-16T10:29:37.714Z,47.70
2017-12-16T10:32:05.833Z,42.20
2017-12-16T10:34:33.404Z,41.83
2017-12-16T10:37:01.009Z,38.50
2017-12-16T10:39:28.638Z,41.43
2017-12-16T10:41:56.215Z,41.87
2017-12-16T10:44:23.817Z,35.17
2017-12-16T10:46:52.189Z,45.13
2017-12-16T10:49:19.768Z,50.60
2017-12-16T10:51:47.368Z,49.57
2017-12-16T10:54:15.722Z,46.80
2017-12-16T10:56:43.357Z,47.63
2017-12-16T10:59:11.011Z,47.10
2017-12-16T11:01:38.633Z,41.43
2017-12-16T11:04:06.987Z,41.50
2017-12-16T11:06:34.963Z,37.60
2017-12-16T11:09:02.574Z,34.90
2017-12-16T11:11:30.162Z,47.97
2017-12-16T11:13:57.851Z,35.50
2017-12-16T11:16:25.453Z,40.67
2017-12-16T11:18:53.065Z,45.50
2017-12-16T11:21:20.647Z,44.43
2017-12-16T11:23:48.317Z,36.07
2017-12-16T11:26:15.880Z,38.60
2017-12-16T11:28:43.485Z,48.13
2017-12-16T11:31:11.112Z,50.03
2017-12-16T11:33:38.666Z,43.27
2017-12-16T11:36:06.281Z,39.93
2017-12-16T11:38:33.837Z,38.97
2017-12-16T11:41:01.763Z,47.70
2017-12-16T11:43:29.500Z,40.43
2017-12-16T11:45:57.853Z,46.27
2017-12-16T11:48:25.489Z,40.20
2017-12-16T11:50:53.121Z,41.23
2017-12-16T11:53:20.732Z,40.57
2017-12-16T11:55:48.305Z,43.57
2017-12-16T11:58:16.685Z,28.00
2017-12-16T12:00:45.034Z,34.43
2017-12-16T12:03:12.649Z,38.20
2017-12-16T12:05:40.224Z,35.93
2017-12-16T12:08:07.821Z,37.87
2017-12-16T12:10:35.561Z,35.53
2017-12-16T12:13:03.139Z,32.13
2017-12-16T12:15:30.790Z,36.40
2017-12-16T12:17:58.381Z,44.20
2017-12-16T12:20:26.001Z,44.27
2017-12-16T12:22:53.568Z,51.60
2017-12-16T12:25:21.154Z,45.17
2017-12-16T12:27:48.822Z,51.20
2017-12-16T12:30:17.245Z,37.43
2017-12-16T12:32:44.898Z,29.33
2017-12-16T12:35:12.477Z,38.70
2017-12-16T12:37:40.041Z,35.63
2017-12-16T12:40:07.690Z,42.63
2017-12-16T12:42:35.261Z,35.37
2017-12-16T12:45:02.902Z,31.10
2017-12-16T12:47:30.482Z,30.13
2017-12-16T12:49:58.113Z,36.83
2017-12-16T12:52:25.687Z,35.07
2017-12-16T12:54:53.273Z,25.10
2017-12-16T12:57:20.898Z,31.70
2017-12-16T12:59:48.504Z,31.87
2017-12-16T13:02:16.133Z,28.33
2017-12-16T13:04:43.716Z,27.70
2017-12-16T13:07:11.312Z,30.40
2017-12-16T13:09:39.040Z,32.70
2017-12-16T13:12:06.622Z,30.43
2017-12-16T13:14:34.244Z,35.43
2017-12-16T13:17:01.830Z,21.33
2017-12-16T13:19:29.492Z,29.50
2017-12-16T13:21:57.030Z,33.00
2017-12-16T13:24:24.602Z,36.00
2017-12-16T13:26:53.160Z,20.87
2017-12-16T13:29:20.750Z,30.73
2017-12-16T13:31:48.380Z,29.53
2017-12-16T13:34:15.992Z,31.07
2017-12-16T13:36:43.561Z,37.60
2017-12-16T13:39:11.227Z,31.57
2017-12-16T13:41:38.801Z,29.30
2017-12-16T13:44:07.477Z,33.53
2017-12-16T13:46:35.894Z,28.60
2017-12-16T13:49:03.518Z,29.63
2017-12-16T13:51:31.106Z,19.87
2017-12-16T13:53:58.679Z,31.43
2017-12-16T13:56:26.305Z,19.23
2017-12-16T13:58:53.893Z,36.03
2017-12-16T14:01:21.609Z,36.47
2017-12-16T14:03:50.073Z,32.57
2017-12-16T14:06:17.822Z,49.50
2017-12-16T14:08:45.490Z,35.57
2017-12-16T14:11:13.233Z,19.93
2017-12-16T14:13:40.810Z,38.93
2017-12-16T14:16:08.414Z,34.00
2017-12-16T14:18:36.010Z,40.70
2017-12-16T14:21:03.592Z,30.40
2017-12-16T14:23:31.215Z,36.37
2017-12-16T14:25:58.803Z,35.23
2017-12-16T14:28:26.483Z,32.57
2017-12-16T14:30:54.150Z,43.00
2017-12-16T14:33:21.729Z,40.40
2017-12-16T14:35:50.133Z,34.97
2017-12-16T14:38:17.699Z,31.60
2017-12-16T14:40:45.305Z,35.80
2017-12-16T14:43:12.870Z,35.47
2017-12-16T14:45:41.286Z,27.33
2017-12-16T14:48:08.868Z,37.73
2017-12-16T14:50:36.485Z,34.37
2017-12-16T14:53:04.825Z,40.27
2017-12-16T14:55:32.406Z,36.93
2017-12-16T14:58:00.107Z,32.07
2017-12-16T15:00:27.688Z,40.30
2017-12-16T15:02:55.326Z,37.77
2017-12-16T15:05:23.701Z,36.90
2017-12-16T15:07:51.389Z,30.07
2017-12-16T15:10:18.926Z,42.50
2017-12-16T15:12:46.556Z,32.30
2017-12-16T15:15:14.163Z,32.03
2017-12-16T15:17:41.736Z,33.40
2017-12-16T15:20:09.442Z,35.50
2017-12-16T15:22:37.090Z,35.40
2017-12-16T15:25:04.738Z,36.57
2017-12-16T15:27:32.321Z,34.77
2017-12-16T15:30:00.731Z,46.60
2017-12-16T15:32:28.329Z,35.83
2017-12-16T15:34:55.903Z,33.33
2017-12-16T15:37:23.512Z,30.73
2017-12-16T15:39:51.077Z,35.73
2017-12-16T15:42:18.691Z,33.73
2017-12-16T15:44:46.279Z,28.90
2017-12-16T15:47:13.913Z,33.90
2017-12-16T15:49:41.498Z,30.43
2017-12-16T15:52:10.297Z,32.73
2017-12-16T15:54:37.857Z,44.70
2017-12-16T15:57:06.223Z,25.03
2017-12-16T15:59:34.638Z,34.37
2017-12-16T16:02:02.184Z,44.60
2017-12-16T16:04:29.810Z,34.47
2017-12-16T16:06:57.412Z,31.53
2017-12-16T16:09:25.441Z,32.60
2017-12-16T16:11:53.047Z,35.50
2017-12-16T16:14:20.667Z,22.03
2017-12-16T16:16:48.595Z,32.63
2017-12-16T16:19:16.148Z,28.50
2017-12-16T16:21:43.808Z,28.90
2017-12-16T16:24:11.434Z,30.80
2017-12-16T16:26:39.453Z,34.87
2017-12-16T16:29:07.061Z,27.50
2017-12-16T16:31:34.649Z,35.93
2017-12-16T16:34:02.281Z,33.70
2017-12-16T16:36:30.687Z,31.30
2017-12-16T16:38:58.318Z,29.33
2017-12-16T16:41:25.881Z,24.77
2017-12-16T16:43:54.326Z,33.27
2017-12-16T16:46:21.884Z,35.37
2017-12-16T16:48:49.832Z,31.13
2017-12-16T16:51:17.404Z,29.33
2017-12-16T16:53:44.978Z,28.20
2017-12-16T16:56:12.606Z,31.57
2017-12-16T16:58:40.193Z,28.10
2017-12-16T17:01:07.841Z,34.07
2017-12-16T17:03:35.458Z,42.87
2017-12-16T17:06:03.557Z,29.40
2017-12-16T17:08:31.860Z,32.67
2017-12-16T17:10:59.430Z,29.33
2017-12-16T17:13:27.089Z,35.63
2017-12-16T17:15:54.668Z,31.70
2017-12-16T17:18:22.277Z,29.40
2017-12-16T17:20:50.760Z,36.80
2017-12-16T17:23:18.445Z,34.63
2017-12-16T17:25:46.020Z,39.97
2017-12-16T17:28:13.615Z,35.27
2017-12-16T17:30:41.182Z,29.47
2017-12-16T17:33:09.188Z,33.37
2017-12-16T17:35:36.782Z,30.40
2017-12-16T17:38:04.397Z,40.37
2017-12-16T17:40:32.065Z,41.73
2017-12-16T17:42:59.650Z,36.67
2017-12-16T17:45:27.247Z,25.10
2017-12-16T17:47:54.828Z,30.27
2017-12-16T17:50:22.534Z,37.73
2017-12-16T17:52:50.128Z,29.73
2017-12-16T17:55:18.012Z,33.07
2017-12-16T17:57:45.598Z,33.70
2017-12-16T18:00:13.153Z,39.47
2017-12-16T18:02:40.764Z,35.40
2017-12-16T18:05:09.130Z,38.63
2017-12-16T18:07:36.748Z,31.77
2017-12-16T18:10:04.500Z,32.83
2017-12-16T18:12:32.100Z,28.23
2017-12-16T18:14:59.670Z,35.10
2017-12-16T18:17:27.718Z,33.23
2017-12-16T18:19:55.289Z,44.73
2017-12-16T18:22:22.865Z,50.40
2017-12-16T18:24:51.241Z,36.40
2017-12-16T18:27:18.822Z,39.53
2017-12-16T18:29:46.520Z,34.27
2017-12-16T18:32:14.098Z,32.50
2017-12-16T18:34:41.719Z,31.70
2017-12-16T18:37:09.275Z,36.73
2017-12-16T18:39:37.278Z,29.93
2017-12-16T18:42:04.850Z,30.93
2017-12-16T18:44:32.477Z,29.10
2017-12-16T18:47:00.094Z,35.93
2017-12-16T18:49:27.654Z,34.67
2017-12-16T18:51:55.353Z,24.47
2017-12-16T18:54:22.946Z,27.30
2017-12-16T18:56:50.590Z,29.93
2017-12-16T18:59:18.162Z,29.87
2017-12-16T19:01:46.037Z,28.03
2017-12-16T19:04:13.604Z,29.20
2017-12-16T19:06:41.258Z,26.70
2017-12-16T19:09:09.807Z,31.83
2017-12-16T19:11:37.383Z,27.87
2017-12-16T19:14:04.989Z,36.10
2017-12-16T19:16:33.309Z,32.73
2017-12-16T19:19:01.240Z,32.93
2017-12-16T19:21:28.826Z,23.43
2017-12-16T19:23:56.394Z,25.13
2017-12-16T19:26:24.006Z,35.73
2017-12-16T19:28:51.651Z,33.27
2017-12-16T19:31:19.274Z,22.13
2017-12-16T19:33:46.862Z,30.80
2017-12-16T19:36:14.471Z,31.13
2017-12-16T19:38:42.033Z,35.50
2017-12-16T19:41:10.867Z,27.23
2017-12-16T19:43:38.442Z,29.73
2017-12-16T19:46:06.027Z,29.80
2017-12-16T19:48:34.382Z,30.70
2017-12-16T19:51:01.942Z,26.13
2017-12-16T19:53:29.664Z,40.97
2017-12-16T19:55:57.258Z,50.37
2017-12-16T19:58:24.889Z,70.23
2017-12-16T20:00:52.606Z,37.57
2017-12-16T20:03:20.286Z,58.07
2017-12-16T20:05:48.140Z,35.00
2017-12-16T20:08:16.207Z,33.90
2017-12-16T20:10:44.072Z,45.80
2017-12-16T20:13:11.937Z,47.33
2017-12-16T20:15:40.233Z,33.70
2017-12-16T20:18:08.229Z,31.50
2017-12-16T20:20:36.053Z,23.10
2017-12-16T20:23:03.960Z,27.83
2017-12-16T20:25:31.839Z,30.30
2017-12-16T20:28:02.008Z,34.23
2017-12-16T20:30:30.003Z,28.87
2017-12-16T20:32:57.922Z,32.30
2017-12-16T20:35:26.545Z,26.93
2017-12-16T20:37:54.721Z,31.20
2017-12-16T20:40:22.918Z,33.00
2017-12-16T20:42:51.990Z,30.07
2017-12-16T20:45:19.877Z,27.90
2017-12-16T20:47:47.787Z,31.20
2017-12-16T20:50:15.879Z,33.97
2017-12-16T20:52:43.935Z,39.40
2017-12-16T20:55:12.096Z,27.90
2017-12-16T20:57:39.970Z,35.37
2017-12-16T21:00:07.897Z,28.60
2017-12-16T21:02:35.817Z,28.93
2017-12-16T21:05:04.044Z,37.10
2017-12-16T21:07:33.064Z,33.83
2017-12-16T21:10:02.672Z,34.63
2017-12-16T21:12:30.711Z,41.53
2017-12-16T21:14:58.604Z,38.53
2017-12-16T21:17:27.319Z,32.43
2017-12-16T21:19:55.509Z,30.83
2017-12-16T21:22:24.026Z,27.27
2017-12-16T21:24:53.049Z,18.63
2017-12-16T21:27:20.736Z,35.33
2017-12-16T21:29:49.153Z,25.70
2017-12-16T21:32:16.731Z,22.30
2017-12-16T21:34:44.400Z,21.67
2017-12-16T21:37:12.118Z,21.20
2017-12-16T21:39:40.522Z,26.93
2017-12-16T21:42:08.103Z,17.33
2017-12-16T21:44:36.083Z,21.70
2017-12-16T21:47:03.694Z,15.53
2017-12-16T21:49:31.325Z,26.80
2017-12-16T21:52:01.862Z,22.90
2017-12-16T21:54:29.474Z,32.20
2017-12-16T21:56:57.475Z,28.40
2017-12-16T21:59:25.938Z,30.87
2017-12-16T22:01:53.534Z,23.67
2017-12-16T22:04:21.176Z,29.67
2017-12-16T22:06:48.761Z,28.03
2017-12-16T22:09:17.143Z,20.70
2017-12-16T22:11:44.705Z,20.73
2017-12-16T22:14:13.111Z,28.30
2017-12-16T22:16:40.681Z,33.23
2017-12-16T22:19:08.451Z,27.23
2017-12-16T22:21:36.027Z,33.47
2017-12-16T22:24:03.980Z,31.10
2017-12-16T22:26:31.550Z,23.47
2017-12-16T22:28:59.145Z,29.47
2017-12-16T22:31:27.551Z,23.87
2017-12-16T22:33:55.149Z,25.13
2017-12-16T22:36:22.763Z,29.90
2017-12-16T22:38:50.350Z,70.30
2017-12-16T22:41:17.956Z,27.90
2017-12-16T22:43:46.393Z,21.77
2017-12-16T22:46:14.284Z,24.40
2017-12-16T22:48:41.880Z,17.80
2017-12-16T22:51:10.218Z,27.83
2017-12-16T22:53:37.917Z,19.93
2017-12-16T22:56:05.528Z,21.60
2017-12-16T22:58:33.166Z,24.70
2017-12-16T23:01:00.756Z,16.70
2017-12-16T23:03:28.352Z,29.77
2017-12-16T23:05:55.985Z,14.43
2017-12-16T23:08:23.976Z,18.83
2017-12-16T23:10:51.606Z,24.43
2017-12-16T23:13:19.262Z,25.20
2017-12-16T23:15:46.915Z,33.03
2017-12-16T23:18:14.509Z,27.60
2017-12-16T23:20:43.001Z,20.43
2017-12-16T23:23:10.582Z,19.90
2017-12-16T23:25:39.207Z,23.17
2017-12-16T23:28:06.871Z,28.20
2017-12-16T23:30:34.436Z,29.40
2017-12-16T23:33:02.191Z,23.03
2017-12-16T23:35:29.766Z,20.90
2017-12-16T23:37:57.429Z,13.83
2017-12-16T23:40:25.054Z,14.23
2017-12-16T23:42:53.038Z,15.63
2017-12-16T23:45:20.736Z,17.00
2017-12-16T23:47:49.213Z,14.90
2017-12-16T23:50:16.893Z,21.73
2017-12-16T23:52:45.393Z,23.60
2017-12-16T23:55:13.829Z,19.93
2017-12-16T23:57:41.361Z,29.03
